Time;durP1;ratioP1;P1;durP2;ratioP2;P2;SDS_P1;SDS_P2;PMS_P1;PMS_P2;Temp;Humidity;BMP_temperature;BMP_pressure;BME280_temperature;BME280_humidity;BME280_pressure;Samples;Min_cycle;Max_cycle;Signal;HPM_P1;HPM_P2
2022/05/17 00:01:03;;;;;;;1.50;1.00;;;16.70;98.20;;;;;;5035677;28;20485;-75
2022/05/17 00:03:30;;;;;;;1.50;1.00;;;16.70;98.20;;;;;;5027921;28;20490;-75
2022/05/17 00:05:57;;;;;;;1.50;1.00;;;16.70;98.20;;;;;;5024122;28;20494;-75
2022/05/17 00:08:24;;;;;;;1.50;0.90;;;16.60;98.20;;;;;;5038967;28;20466;-75
2022/05/17 00:10:51;;;;;;;1.50;1.00;;;16.60;98.20;;;;;;5025898;28;20807;-75
2022/05/17 00:13:18;;;;;;;1.50;1.00;;;16.60;98.20;;;;;;5024231;28;20987;-75
2022/05/17 00:15:47;;;;;;;1.50;1.00;;;16.50;98.20;;;;;;5037622;28;20848;-75
2022/05/17 00:18:16;;;;;;;1.50;1.00;;;16.50;98.20;;;;;;5042876;28;20466;-75
2022/05/17 00:20:43;;;;;;;1.50;1.00;;;16.50;98.20;;;;;;5037310;28;20985;-75
2022/05/17 00:23:12;;;;;;;1.50;1.00;;;16.50;98.20;;;;;;5028601;28;20474;-75
2022/05/17 00:25:40;;;;;;;1.50;1.00;;;16.40;98.20;;;;;;5029816;28;20847;-75
2022/05/17 00:28:07;;;;;;;1.50;0.97;;;16.40;98.20;;;;;;5028177;28;20467;-75
2022/05/17 00:30:34;;;;;;;1.50;1.00;;;16.40;98.20;;;;;;5028603;28;20473;-75
2022/05/17 00:33:00;;;;;;;1.47;1.00;;;16.30;98.20;;;;;;5040744;28;20463;-75
2022/05/17 00:35:28;;;;;;;1.50;1.00;;;16.20;98.20;;;;;;5023393;28;21313;-75
2022/05/17 00:37:55;;;;;;;1.50;1.00;;;16.10;98.20;;;;;;5026686;28;20870;-75
2022/05/17 00:40:22;;;;;;;1.50;1.00;;;16.00;98.20;;;;;;5044186;28;20470;-75
2022/05/17 00:42:49;;;;;;;1.50;1.00;;;16.00;98.20;;;;;;5033701;28;20483;-75
2022/05/17 00:45:15;;;;;;;1.50;1.00;;;15.90;98.20;;;;;;5026855;28;20507;-75
2022/05/17 00:47:46;;;;;;;1.40;1.00;;;15.90;98.20;;;;;;5026105;28;20463;-75
2022/05/17 00:50:21;;;;;;;1.50;1.00;;;15.90;98.20;;;;;;5028821;28;20466;-75
2022/05/17 00:52:54;;;;;;;1.50;1.00;;;15.90;98.20;;;;;;5036218;28;20831;-75
2022/05/17 00:55:25;;;;;;;1.50;1.00;;;15.90;98.20;;;;;;5026763;28;20486;-75
2022/05/17 00:57:55;;;;;;;1.50;1.00;;;15.90;98.20;;;;;;5029423;28;20832;-75
2022/05/17 01:00:26;;;;;;;1.50;0.90;;;15.90;98.20;;;;;;5028476;28;20525;-75
2022/05/17 01:03:03;;;;;;;1.50;1.00;;;15.90;98.20;;;;;;5030431;28;20853;-75
2022/05/17 01:05:35;;;;;;;1.50;1.00;;;15.90;98.20;;;;;;5021209;28;20573;-75
2022/05/17 01:08:04;;;;;;;1.50;1.00;;;15.90;98.20;;;;;;5025963;28;20463;-75
2022/05/17 01:10:31;;;;;;;1.50;1.00;;;15.80;98.20;;;;;;5026870;28;20555;-75
2022/05/17 01:15:43;;;;;;;1.50;1.00;;;15.80;98.20;;;;;;5027811;28;21024;-75
2022/05/17 01:18:10;;;;;;;1.50;1.10;;;15.70;98.20;;;;;;5028060;28;20465;-75
2022/05/17 01:20:38;;;;;;;1.50;1.00;;;15.70;98.20;;;;;;5023937;28;20464;-75
2022/05/17 01:23:06;;;;;;;1.50;1.00;;;15.70;98.20;;;;;;5022826;28;20478;-75
2022/05/17 01:25:34;;;;;;;1.50;1.00;;;15.70;98.20;;;;;;5023673;28;20483;-75
2022/05/17 01:28:04;;;;;;;1.50;1.00;;;15.70;98.20;;;;;;5025086;28;20887;-75
2022/05/17 01:30:32;;;;;;;1.50;1.00;;;15.60;98.20;;;;;;5008692;28;20469;-75
2022/05/17 01:32:59;;;;;;;1.50;0.90;;;15.60;98.20;;;;;;5006320;28;20484;-75
2022/05/17 01:35:25;;;;;;;1.47;1.00;;;15.50;98.20;;;;;;5021189;28;21008;-75
2022/05/17 01:37:55;;;;;;;1.50;1.00;;;15.50;98.20;;;;;;5027790;28;20840;-74
2022/05/17 01:40:23;;;;;;;1.50;1.00;;;15.50;98.20;;;;;;5046005;28;20561;-75
2022/05/17 01:42:50;;;;;;;1.50;1.00;;;15.40;98.20;;;;;;5013902;28;20485;-74
2022/05/17 01:45:17;;;;;;;1.50;1.00;;;15.40;98.20;;;;;;5027130;28;20486;-74
2022/05/17 01:47:44;;;;;;;1.50;1.00;;;15.40;98.20;;;;;;5028800;28;20467;-74
2022/05/17 01:50:11;;;;;;;1.50;1.03;;;15.40;98.20;;;;;;5026899;28;20471;-74
2022/05/17 01:52:37;;;;;;;1.50;1.00;;;15.40;98.20;;;;;;5027587;28;20943;-74
2022/05/17 01:55:05;;;;;;;1.50;1.00;;;15.30;98.20;;;;;;5026891;28;20854;-74
2022/05/17 01:57:33;;;;;;;1.50;1.00;;;15.30;98.20;;;;;;5031401;28;20834;-74
2022/05/17 02:00:00;;;;;;;1.50;0.93;;;15.30;98.20;;;;;;5030906;28;20821;-74
2022/05/17 02:02:27;;;;;;;1.47;0.93;;;15.30;98.20;;;;;;5032351;28;21065;-74
2022/05/17 02:04:53;;;;;;;1.50;0.90;;;15.30;98.20;;;;;;4988150;28;1055960;-74
2022/05/17 02:07:20;;;;;;;1.50;1.10;;;15.30;98.20;;;;;;5027562;28;20220;-74
2022/05/17 02:09:47;;;;;;;1.50;1.00;;;15.20;98.20;;;;;;5043518;28;20553;-74
2022/05/17 02:12:14;;;;;;;1.50;0.90;;;15.20;98.20;;;;;;5038155;28;20494;-74
2022/05/17 02:14:42;;;;;;;1.50;1.00;;;15.20;98.20;;;;;;5035685;28;20891;-74
2022/05/17 02:17:08;;;;;;;1.50;0.93;;;15.10;98.20;;;;;;5039655;28;20473;-74
2022/05/17 02:19:35;;;;;;;1.50;1.00;;;15.10;98.20;;;;;;5047034;28;20872;-74
2022/05/17 02:22:02;;;;;;;1.50;1.00;;;15.10;98.20;;;;;;5034934;28;20486;-74
2022/05/17 02:24:29;;;;;;;1.50;1.00;;;15.10;98.20;;;;;;5027398;28;20879;-74
2022/05/17 02:26:56;;;;;;;1.50;1.00;;;15.10;98.20;;;;;;5026661;28;20467;-74
2022/05/17 02:29:23;;;;;;;1.50;0.90;;;15.10;98.20;;;;;;5027745;28;20459;-74
2022/05/17 02:31:52;;;;;;;1.50;1.00;;;15.10;98.20;;;;;;5037469;28;20464;-74
2022/05/17 02:34:19;;;;;;;1.50;1.10;;;15.10;98.20;;;;;;5022280;28;20485;-74
2022/05/17 02:36:46;;;;;;;1.50;1.00;;;15.00;98.20;;;;;;5023522;28;20473;-74
2022/05/17 02:39:13;;;;;;;1.50;1.03;;;15.00;98.20;;;;;;5025977;28;20489;-74
2022/05/17 02:41:40;;;;;;;1.50;1.10;;;15.00;98.20;;;;;;5008950;28;20478;-74
2022/05/17 02:44:07;;;;;;;1.50;1.00;;;14.90;98.20;;;;;;5026911;28;20483;-74
2022/05/17 02:46:34;;;;;;;1.50;1.10;;;14.90;98.20;;;;;;5032079;28;20470;-74
2022/05/17 02:49:07;;;;;;;1.50;1.00;;;14.90;98.20;;;;;;5050974;28;20470;-73
2022/05/17 02:51:35;;;;;;;1.50;1.00;;;14.90;98.20;;;;;;5037619;28;20510;-74
2022/05/17 02:54:05;;;;;;;1.50;1.00;;;14.90;98.20;;;;;;5030613;28;20499;-74
2022/05/17 02:56:31;;;;;;;1.50;1.00;;;14.90;98.20;;;;;;5029427;28;20470;-74
2022/05/17 02:58:58;;;;;;;1.53;1.13;;;14.90;98.20;;;;;;5048499;28;20466;-74
2022/05/17 03:01:25;;;;;;;1.50;1.00;;;14.90;98.20;;;;;;5030314;28;20483;-74
2022/05/17 03:03:52;;;;;;;1.50;1.00;;;14.90;98.20;;;;;;5016848;28;20470;-74
2022/05/17 03:06:20;;;;;;;1.50;1.00;;;14.90;98.20;;;;;;5022535;28;20455;-73
2022/05/17 03:08:47;;;;;;;1.50;0.97;;;14.80;98.20;;;;;;5069812;23;20752;-78
2022/05/17 03:11:14;;;;;;;1.50;1.10;;;14.80;98.20;;;;;;5048247;28;21074;-77
2022/05/17 03:13:41;;;;;;;1.50;1.00;;;14.80;98.20;;;;;;5052077;28;20745;-76
2022/05/17 03:16:10;;;;;;;1.50;1.00;;;14.80;98.20;;;;;;5053339;28;20461;-80
2022/05/17 03:18:39;;;;;;;1.47;1.00;;;14.80;98.20;;;;;;5047550;28;20483;-78
2022/05/17 03:21:06;;;;;;;1.50;1.00;;;14.80;98.20;;;;;;5030350;28;20467;-80
2022/05/17 03:23:34;;;;;;;1.50;1.10;;;14.80;98.20;;;;;;5032434;28;20483;-77
2022/05/17 03:26:01;;;;;;;1.50;1.00;;;14.90;98.20;;;;;;5021646;28;20471;-77
2022/05/17 03:28:27;;;;;;;1.50;1.00;;;14.90;98.20;;;;;;5028617;28;20510;-79
2022/05/17 03:30:54;;;;;;;1.50;1.00;;;14.90;98.20;;;;;;5027918;28;20490;-76
2022/05/17 03:33:21;;;;;;;1.50;1.00;;;14.80;98.20;;;;;;5028362;28;20471;-75
2022/05/17 03:35:48;;;;;;;1.50;1.10;;;14.80;98.20;;;;;;5021138;28;20565;-78
2022/05/17 03:38:15;;;;;;;1.50;1.00;;;14.90;98.20;;;;;;5034171;28;20490;-78
2022/05/17 03:40:43;;;;;;;1.50;1.00;;;14.90;98.20;;;;;;5032981;28;20466;-77
2022/05/17 03:43:10;;;;;;;1.47;1.00;;;14.90;98.20;;;;;;5024554;28;20483;-81
2022/05/17 03:45:36;;;;;;;1.50;1.00;;;14.90;98.20;;;;;;5032873;28;20463;-76
2022/05/17 03:48:04;;;;;;;1.50;1.00;;;14.90;98.20;;;;;;5033756;28;20470;-78
2022/05/17 03:50:31;;;;;;;1.47;1.00;;;14.90;98.20;;;;;;5033773;28;20459;-76
2022/05/17 03:53:00;;;;;;;1.43;1.00;;;14.90;98.20;;;;;;5032679;28;20495;-79
2022/05/17 03:55:27;;;;;;;1.50;1.00;;;14.90;98.20;;;;;;5032871;28;20494;-78
2022/05/17 03:57:55;;;;;;;1.50;1.10;;;14.90;98.20;;;;;;5027483;28;20463;-78
2022/05/17 04:00:22;;;;;;;1.50;1.10;;;15.00;98.20;;;;;;5032077;28;20474;-79
2022/05/17 04:02:49;;;;;;;1.50;1.00;;;15.00;98.20;;;;;;5031415;28;20483;-77
2022/05/17 04:05:16;;;;;;;1.50;1.00;;;15.10;98.20;;;;;;5027371;28;20521;-80
2022/05/17 04:07:43;;;;;;;1.50;1.03;;;15.10;98.20;;;;;;5031938;28;20471;-77
2022/05/17 04:10:13;;;;;;;1.47;1.00;;;15.20;98.20;;;;;;5031845;28;20491;-79
2022/05/17 04:12:40;;;;;;;1.50;1.00;;;15.20;98.20;;;;;;5032174;28;20944;-78
2022/05/17 04:15:11;;;;;;;1.50;1.00;;;15.20;98.20;;;;;;5031656;28;21107;-79
2022/05/17 04:17:38;;;;;;;1.50;1.00;;;15.20;98.20;;;;;;5031563;28;20940;-76
2022/05/17 04:20:06;;;;;;;1.50;1.00;;;15.20;98.20;;;;;;5030258;28;20495;-77
2022/05/17 04:22:33;;;;;;;1.50;0.90;;;15.30;98.20;;;;;;5028288;28;20547;-78
2022/05/17 04:24:59;;;;;;;1.50;1.00;;;15.40;98.20;;;;;;5030666;28;20643;-78
2022/05/17 04:27:27;;;;;;;1.50;1.00;;;15.50;98.20;;;;;;5031713;28;20466;-78
2022/05/17 04:29:54;;;;;;;1.50;1.00;;;15.60;98.20;;;;;;5029622;28;20486;-78
2022/05/17 04:32:22;;;;;;;1.50;1.00;;;15.60;98.20;;;;;;5028451;28;20609;-80
2022/05/17 04:34:49;;;;;;;1.50;1.00;;;15.60;98.20;;;;;;5021217;28;20633;-77
2022/05/17 04:37:15;;;;;;;1.47;1.00;;;15.60;98.20;;;;;;5026990;28;20543;-76
2022/05/17 04:39:42;;;;;;;1.43;1.00;;;15.60;98.20;;;;;;5030362;28;20487;-77
2022/05/17 04:42:10;;;;;;;1.50;1.00;;;15.70;98.20;;;;;;5018592;28;20483;-78
2022/05/17 04:44:37;;;;;;;1.50;1.00;;;15.70;98.20;;;;;;5030115;28;20477;-76
2022/05/17 04:47:04;;;;;;;1.50;1.00;;;15.70;98.20;;;;;;5030735;28;20556;-76
2022/05/17 04:49:32;;;;;;;1.50;0.90;;;15.70;98.20;;;;;;5024075;28;20584;-76
2022/05/17 04:51:59;;;;;;;1.40;0.90;;;15.80;98.20;;;;;;5020374;28;20762;-76
2022/05/17 04:54:25;;;;;;;1.50;1.00;;;15.90;98.20;;;;;;5027818;28;20830;-77
2022/05/17 04:56:52;;;;;;;1.50;0.93;;;15.90;98.20;;;;;;5023881;28;20517;-79
2022/05/17 04:59:19;;;;;;;1.50;1.00;;;16.00;98.20;;;;;;5031051;28;20483;-78
2022/05/17 05:01:46;;;;;;;1.50;1.00;;;16.00;98.20;;;;;;5026717;28;20490;-78
2022/05/17 05:04:14;;;;;;;1.50;1.00;;;16.00;98.20;;;;;;5026244;28;20487;-78
2022/05/17 05:06:42;;;;;;;1.50;0.90;;;16.10;98.20;;;;;;5025292;28;20824;-78
2022/05/17 05:09:10;;;;;;;1.50;0.90;;;16.10;98.20;;;;;;5031005;28;21021;-78
2022/05/17 05:11:37;;;;;;;1.50;1.00;;;16.10;98.20;;;;;;5032162;28;20959;-79
2022/05/17 05:14:05;;;;;;;1.50;1.00;;;16.10;98.20;;;;;;5031385;28;20471;-80
2022/05/17 05:16:32;;;;;;;1.50;0.97;;;16.10;98.20;;;;;;5031808;28;20562;-76
2022/05/17 05:18:59;;;;;;;1.50;1.03;;;16.20;98.20;;;;;;5031500;28;20867;-77
2022/05/17 05:21:26;;;;;;;1.50;1.00;;;16.20;98.20;;;;;;5028853;28;20475;-77
2022/05/17 05:23:54;;;;;;;1.50;1.00;;;16.20;98.20;;;;;;5036107;28;20487;-76
2022/05/17 05:26:21;;;;;;;1.43;0.90;;;16.30;98.20;;;;;;5033738;28;20470;-76
2022/05/17 05:28:48;;;;;;;1.50;1.00;;;16.30;98.20;;;;;;5034722;28;20511;-75
2022/05/17 05:31:16;;;;;;;1.50;1.00;;;16.30;98.20;;;;;;5029416;28;20499;-77
2022/05/17 05:33:43;;;;;;;1.43;1.00;;;16.40;98.20;;;;;;5031728;28;20470;-76
2022/05/17 05:36:11;;;;;;;1.50;1.00;;;16.30;98.20;;;;;;5027999;28;20984;-76
2022/05/17 05:38:38;;;;;;;1.50;0.90;;;16.40;98.20;;;;;;5030927;28;20482;-77
2022/05/17 05:41:10;;;;;;;1.50;1.00;;;16.40;98.20;;;;;;5027991;28;20543;-75
2022/05/17 05:43:38;;;;;;;1.50;1.00;;;16.40;98.20;;;;;;5025750;28;20483;-76
2022/05/17 05:46:05;;;;;;;1.50;1.00;;;16.50;98.20;;;;;;5023503;28;20470;-76
2022/05/17 05:48:32;;;;;;;1.50;1.00;;;16.60;98.20;;;;;;5032860;28;20487;-77
2022/05/17 05:50:59;;;;;;;1.50;1.00;;;16.70;98.20;;;;;;5033172;28;20471;-76
2022/05/17 05:53:27;;;;;;;1.47;0.93;;;16.70;98.20;;;;;;5034652;28;20471;-76
2022/05/17 05:55:57;;;;;;;1.50;0.90;;;16.80;98.20;;;;;;5033281;28;20510;-77
2022/05/17 05:58:26;;;;;;;1.50;0.90;;;16.80;98.20;;;;;;5034647;28;21021;-75
2022/05/17 06:00:54;;;;;;;1.50;1.00;;;16.90;98.20;;;;;;5039242;28;20494;-75
2022/05/17 06:03:20;;;;;;;1.50;1.00;;;16.90;98.20;;;;;;5034104;28;20482;-77
2022/05/17 06:05:48;;;;;;;1.47;0.90;;;16.90;98.20;;;;;;5015670;28;20497;-76
2022/05/17 06:08:16;;;;;;;1.50;0.93;;;16.90;98.20;;;;;;5033028;28;20477;-76
2022/05/17 06:10:44;;;;;;;1.50;1.00;;;16.90;98.20;;;;;;5032256;28;20546;-77
2022/05/17 06:13:13;;;;;;;1.47;0.90;;;16.90;98.20;;;;;;5028728;28;20470;-74
2022/05/17 06:15:43;;;;;;;1.50;1.00;;;16.90;98.20;;;;;;5025491;28;20632;-76
2022/05/17 06:18:11;;;;;;;1.50;1.00;;;17.00;98.20;;;;;;5031019;28;20478;-76
2022/05/17 06:20:39;;;;;;;1.50;0.90;;;17.10;98.20;;;;;;5025222;28;20573;-76
2022/05/17 06:23:07;;;;;;;1.50;1.10;;;17.10;98.20;;;;;;5029037;28;20498;-77
2022/05/17 06:25:34;;;;;;;1.50;1.00;;;17.40;98.20;;;;;;5035350;28;20474;-76
2022/05/17 06:28:02;;;;;;;1.80;1.23;;;17.60;98.20;;;;;;5033103;28;20925;-77
2022/05/17 06:30:29;;;;;;;1.60;1.40;;;17.80;98.20;;;;;;5034375;28;20837;-77
2022/05/17 06:32:57;;;;;;;2.87;2.60;;;18.00;98.20;;;;;;5027225;28;20468;-78
2022/05/17 06:35:25;;;;;;;1.50;1.10;;;18.10;98.20;;;;;;5032184;28;20470;-79
2022/05/17 06:37:59;;;;;;;1.50;0.90;;;18.30;98.20;;;;;;5026608;28;20487;-77
2022/05/17 06:40:26;;;;;;;1.50;0.90;;;18.40;98.20;;;;;;5046501;28;20467;-76
2022/05/17 06:42:53;;;;;;;1.50;1.10;;;18.40;98.20;;;;;;5032765;28;20548;-76
2022/05/17 06:45:20;;;;;;;1.50;0.93;;;18.60;98.20;;;;;;5036601;28;20856;-77
2022/05/17 06:47:47;;;;;;;1.50;0.90;;;18.60;98.20;;;;;;5027694;28;20899;-78
2022/05/17 06:50:16;;;;;;;1.50;0.93;;;18.60;98.20;;;;;;5035377;28;20750;-77
2022/05/17 06:52:48;;;;;;;1.50;0.90;;;18.70;98.20;;;;;;5023960;28;20475;-78
2022/05/17 06:55:17;;;;;;;1.50;0.90;;;18.80;98.20;;;;;;5027856;28;20460;-78
2022/05/17 06:57:44;;;;;;;1.50;1.00;;;18.80;98.20;;;;;;5035732;28;20972;-77
2022/05/17 07:00:14;;;;;;;1.50;1.00;;;18.90;98.20;;;;;;5034376;28;20537;-76
2022/05/17 07:02:41;;;;;;;1.50;0.90;;;19.00;98.20;;;;;;5031749;28;21006;-76
2022/05/17 07:05:10;;;;;;;1.50;1.00;;;19.00;98.20;;;;;;5029858;28;20463;-78
2022/05/17 07:07:39;;;;;;;2.33;2.13;;;18.90;98.20;;;;;;5040424;28;20478;-78
2022/05/17 07:13:09;;;;;;;1.50;0.90;;;18.90;98.20;;;;;;5008506;28;20483;-77
2022/05/17 07:15:35;;;;;;;1.50;0.90;;;19.00;98.20;;;;;;5032897;28;20605;-78
2022/05/17 07:18:03;;;;;;;1.50;1.00;;;19.20;98.20;;;;;;5027798;28;20503;-78
2022/05/17 07:20:31;;;;;;;1.50;0.90;;;19.30;98.20;;;;;;5035266;28;20522;-79
2022/05/17 07:22:59;;;;;;;1.50;0.90;;;19.40;98.20;;;;;;5036158;28;20486;-79
2022/05/17 07:25:26;;;;;;;1.50;0.90;;;19.60;98.20;;;;;;5028101;28;20468;-78
2022/05/17 07:27:53;;;;;;;1.50;0.90;;;19.60;98.20;;;;;;5028855;28;20466;-78
2022/05/17 07:30:19;;;;;;;1.50;0.97;;;19.80;98.20;;;;;;5028776;28;20487;-78
2022/05/17 07:32:46;;;;;;;1.60;1.30;;;20.10;98.20;;;;;;5034185;28;20459;-77
2022/05/17 07:35:13;;;;;;;1.50;0.90;;;20.30;97.80;;;;;;5028304;28;20459;-78
2022/05/17 07:37:40;;;;;;;1.60;1.00;;;20.40;97.20;;;;;;5034952;28;20499;-77
2022/05/17 07:40:12;;;;;;;1.50;1.00;;;20.50;97.10;;;;;;5036402;28;20490;-77
2022/05/17 07:42:39;;;;;;;1.70;1.10;;;20.60;97.10;;;;;;5028382;28;20460;-77
2022/05/17 07:45:07;;;;;;;1.50;0.90;;;20.80;96.60;;;;;;5035762;28;20491;-77
2022/05/17 07:47:34;;;;;;;4.77;4.30;;;21.00;95.70;;;;;;5031903;28;20463;-76
2022/05/17 07:50:03;;;;;;;1.50;0.90;;;21.10;95.30;;;;;;5036011;28;20545;-76
2022/05/17 07:52:31;;;;;;;1.50;0.90;;;21.20;95.20;;;;;;5029747;28;20466;-77
2022/05/17 07:55:00;;;;;;;1.50;0.90;;;21.20;95.30;;;;;;5024356;28;20460;-75
2022/05/17 07:57:29;;;;;;;1.70;1.50;;;21.30;94.70;;;;;;5029576;28;20873;-76
2022/05/17 07:59:56;;;;;;;1.50;0.90;;;21.50;94.20;;;;;;5034493;28;20537;-76
2022/05/17 08:02:23;;;;;;;1.50;0.90;;;21.40;94.10;;;;;;5032514;28;20459;-76
2022/05/17 08:04:50;;;;;;;1.50;0.90;;;21.40;94.40;;;;;;5024068;28;20595;-77
2022/05/17 08:07:17;;;;;;;1.50;0.90;;;21.50;95.00;;;;;;5034245;28;20474;-79
2022/05/17 08:09:44;;;;;;;1.50;0.90;;;21.70;94.60;;;;;;5035072;28;20530;-77
2022/05/17 08:12:11;;;;;;;1.50;0.90;;;22.10;94.50;;;;;;5033572;28;20469;-79
2022/05/17 08:14:40;;;;;;;1.50;0.90;;;22.50;91.80;;;;;;5030672;28;20459;-78
2022/05/17 08:17:09;;;;;;;1.50;0.90;;;22.80;90.60;;;;;;5023580;28;20494;-77
2022/05/17 08:19:36;;;;;;;1.50;0.90;;;23.10;89.40;;;;;;5035369;28;20475;-78
2022/05/17 08:22:04;;;;;;;1.50;0.90;;;23.40;88.10;;;;;;5033684;28;20496;-77
2022/05/17 08:27:31;;;;;;;1.50;0.90;;;23.60;87.70;;;;;;5033990;28;20878;-80
2022/05/17 08:27:31;;;;;;;1.50;0.90;;;23.70;87.60;;;;;;5033673;28;20491;-76
2022/05/17 08:30:00;;;;;;;1.50;0.80;;;23.80;87.40;;;;;;5030672;28;20478;-77
2022/05/17 08:35:11;;;;;;;1.50;0.90;;;24.20;86.20;;;;;;5022485;28;20439;-77
2022/05/17 08:37:38;;;;;;;1.47;0.90;;;24.30;85.30;;;;;;5030634;28;20455;-78
2022/05/17 08:40:07;;;;;;;1.47;0.80;;;24.30;86.00;;;;;;5039897;28;20559;-77
2022/05/17 08:42:44;;;;;;;1.70;1.13;;;24.30;85.30;;;;;;5037560;28;20463;-77
2022/05/17 08:45:35;;;;;;;1.47;0.83;;;24.50;85.40;;;;;;5033119;28;20490;-78
2022/05/17 08:48:04;;;;;;;1.50;0.90;;;24.80;84.40;;;;;;5035268;28;20463;-78
2022/05/17 08:50:37;;;;;;;1.47;0.90;;;24.70;83.50;;;;;;5033395;28;20481;-78
2022/05/17 08:53:04;;;;;;;1.50;0.90;;;24.70;83.50;;;;;;5035226;28;20903;-78
2022/05/17 08:58:22;;;;;;;1.47;0.90;;;25.20;83.10;;;;;;5029822;28;20479;-76
2022/05/17 09:00:55;;;;;;;1.50;0.90;;;25.50;81.10;;;;;;5014969;28;20459;-77
2022/05/17 09:03:45;;;;;;;1.50;0.90;;;25.70;80.50;;;;;;5032887;28;20557;-77
2022/05/17 09:06:21;;;;;;;1.50;0.90;;;25.90;79.50;;;;;;5027304;28;20463;-78
2022/05/17 09:11:20;;;;;;;1.40;0.80;;;26.20;78.00;;;;;;5052554;23;20492;-75
2022/05/17 09:13:54;;;;;;;1.47;0.90;;;26.30;78.00;;;;;;5044572;28;20625;-76
2022/05/17 09:16:36;;;;;;;1.50;0.90;;;26.60;77.10;;;;;;5041952;28;20525;-75
2022/05/17 09:19:02;;;;;;;1.50;0.80;;;26.90;76.40;;;;;;5039458;28;20462;-75
2022/05/17 09:21:32;;;;;;;1.47;0.80;;;26.90;75.50;;;;;;5011040;28;20994;-75
2022/05/17 09:24:02;;;;;;;1.50;0.90;;;27.00;76.00;;;;;;5023908;28;20486;-75
2022/05/17 09:26:30;;;;;;;1.50;1.00;;;27.20;74.70;;;;;;5024589;28;20462;-75
2022/05/17 09:29:01;;;;;;;1.50;0.90;;;27.10;73.80;;;;;;5024795;28;20466;-75
2022/05/17 09:31:32;;;;;;;1.40;0.80;;;27.10;75.40;;;;;;5024590;28;20467;-76
2022/05/17 09:34:02;;;;;;;1.47;0.80;;;27.20;74.30;;;;;;5015661;28;20949;-75
2022/05/17 09:36:34;;;;;;;1.50;0.80;;;27.10;73.60;;;;;;5017247;28;20498;-75
2022/05/17 09:39:02;;;;;;;1.47;0.80;;;27.20;75.80;;;;;;5020001;28;20470;-76
2022/05/17 09:41:35;;;;;;;1.50;0.80;;;27.20;75.30;;;;;;5024165;28;20977;-75
2022/05/17 09:44:04;;;;;;;1.50;0.80;;;27.20;75.70;;;;;;5021311;28;21093;-76
2022/05/17 09:46:34;;;;;;;1.47;0.80;;;27.10;75.40;;;;;;5019007;28;20468;-75
2022/05/17 09:54:43;;;;;;;1.47;0.80;;;26.90;74.50;;;;;;5023705;28;21069;-76
2022/05/17 09:57:19;;;;;;;1.50;0.80;;;26.80;75.40;;;;;;5016294;28;20486;-77
2022/05/17 09:59:47;;;;;;;1.47;0.80;;;26.90;75.80;;;;;;5017851;28;20493;-75
2022/05/17 10:02:39;;;;;;;1.47;0.80;;;26.90;72.90;;;;;;5010668;28;20490;-76
2022/05/17 10:05:20;;;;;;;1.50;0.90;;;27.00;73.10;;;;;;5013836;28;20855;-77
2022/05/17 10:07:59;;;;;;;1.50;0.80;;;27.10;73.20;;;;;;5008219;28;20579;-76
2022/05/17 10:10:35;;;;;;;1.47;0.90;;;26.90;74.20;;;;;;5019371;28;20520;-76
2022/05/17 10:13:14;;;;;;;1.47;0.80;;;26.90;75.10;;;;;;5017092;28;20931;-76
2022/05/17 10:15:44;;;;;;;1.50;0.80;;;27.00;74.70;;;;;;5023207;28;20462;-76
2022/05/17 10:18:27;;;;;;;1.40;0.80;;;27.00;74.10;;;;;;5023145;28;20466;-76
2022/05/17 10:20:58;;;;;;;1.40;0.80;;;27.00;73.10;;;;;;5018420;28;20843;-77
2022/05/17 10:23:31;;;;;;;1.43;0.80;;;26.90;73.10;;;;;;5023712;28;20463;-76
2022/05/17 10:26:03;;;;;;;1.47;0.80;;;26.90;73.40;;;;;;5019277;28;20934;-77
2022/05/17 10:28:39;;;;;;;1.47;0.90;;;26.80;71.80;;;;;;5023615;28;20490;-76
2022/05/17 10:31:14;;;;;;;1.47;0.87;;;26.60;72.50;;;;;;5022483;28;20489;-76
2022/05/17 10:34:06;;;;;;;1.50;1.00;;;26.50;73.00;;;;;;5018047;28;21216;-76
2022/05/17 10:36:40;;;;;;;1.50;0.90;;;26.70;73.70;;;;;;5012825;28;20865;-76
2022/05/17 10:39:15;;;;;;;1.47;0.90;;;26.50;72.30;;;;;;5022864;28;20499;-76
2022/05/17 10:41:42;;;;;;;1.43;0.80;;;26.40;73.50;;;;;;5018178;28;20477;-76
2022/05/17 10:44:15;;;;;;;1.50;0.90;;;26.40;73.10;;;;;;5014055;28;20497;-73
2022/05/17 10:46:48;;;;;;;1.40;0.80;;;26.50;74.60;;;;;;5020344;28;20467;-75
2022/05/17 10:49:27;;;;;;;1.50;0.87;;;26.60;73.30;;;;;;5021816;28;20509;-75
2022/05/17 10:52:03;;;;;;;1.47;0.90;;;26.60;73.10;;;;;;5013885;28;20474;-76
2022/05/17 10:54:40;;;;;;;1.40;0.83;;;27.00;72.60;;;;;;5020081;28;20504;-74
2022/05/17 10:57:14;;;;;;;1.43;0.80;;;27.00;71.90;;;;;;5021120;28;20466;-74
2022/05/17 10:59:46;;;;;;;1.47;0.90;;;27.00;72.80;;;;;;5019362;28;20983;-75
2022/05/17 11:02:28;;;;;;;1.43;0.80;;;27.20;73.10;;;;;;5015646;28;20462;-75
2022/05/17 11:05:20;;;;;;;1.50;0.90;;;27.50;71.00;;;;;;5008921;28;20499;-75
2022/05/17 11:07:57;;;;;;;1.47;0.80;;;27.40;70.80;;;;;;4993531;28;20858;-75
2022/05/17 11:10:35;;;;;;;1.50;0.90;;;27.40;71.20;;;;;;5025591;28;20497;-75
2022/05/17 11:13:16;;;;;;;1.40;0.80;;;27.40;70.80;;;;;;5014785;28;20498;-75
2022/05/17 11:15:49;;;;;;;1.43;0.90;;;27.20;71.20;;;;;;5022940;28;20958;-77
2022/05/17 11:18:23;;;;;;;1.47;0.87;;;27.20;70.80;;;;;;5022261;28;20553;-74
2022/05/17 11:20:57;;;;;;;1.43;0.90;;;27.00;72.00;;;;;;5024686;28;20811;-74
2022/05/17 11:23:45;;;;;;;1.47;0.90;;;26.80;72.30;;;;;;5022527;28;20466;-76
2022/05/17 11:26:45;;;;;;;1.47;0.80;;;26.90;71.60;;;;;;5023224;28;20957;-76
2022/05/17 11:29:46;;;;;;;1.43;0.80;;;26.80;70.60;;;;;;5006517;28;20491;-76
2022/05/17 11:32:28;;;;;;;1.40;0.80;;;26.70;70.60;;;;;;5002767;28;20465;-76
2022/05/17 11:34:56;;;;;;;1.47;0.90;;;26.50;71.10;;;;;;5016490;28;20456;-75
2022/05/17 11:37:47;;;;;;;1.47;0.80;;;26.40;71.80;;;;;;5020535;28;20557;-76
2022/05/17 11:40:51;;;;;;;1.43;0.90;;;26.30;71.80;;;;;;5020826;28;20486;-75
2022/05/17 11:46:05;;;;;;;1.40;0.83;;;26.10;72.30;;;;;;5025125;28;20486;-76
2022/05/17 11:48:46;;;;;;;1.50;1.10;;;26.10;70.30;;;;;;5025427;28;20473;-75
2022/05/17 11:51:12;;;;;;;1.40;0.80;;;26.10;69.50;;;;;;5024289;28;20857;-76
2022/05/17 11:53:46;;;;;;;1.47;0.90;;;26.20;70.00;;;;;;5023610;28;20470;-75
2022/05/17 11:56:15;;;;;;;1.43;0.80;;;26.20;71.90;;;;;;5024440;28;20493;-76
2022/05/17 11:58:43;;;;;;;1.43;0.80;;;26.10;72.30;;;;;;5025754;28;20470;-76
2022/05/17 12:01:47;;;;;;;1.43;0.90;;;26.10;72.70;;;;;;5022919;28;20582;-75
2022/05/17 12:04:39;;;;;;;1.47;0.90;;;26.00;72.10;;;;;;5017734;28;20466;-76
2022/05/17 12:07:27;;;;;;;1.40;0.80;;;25.80;72.80;;;;;;5019339;28;20470;-76
2022/05/17 12:09:56;;;;;;;1.40;0.83;;;25.90;72.70;;;;;;5013511;28;20642;-76
2022/05/17 12:12:54;;;;;;;1.43;0.80;;;25.90;72.50;;;;;;5009646;28;20479;-76
2022/05/17 12:15:44;;;;;;;2.17;1.10;;;25.90;72.60;;;;;;5014343;28;20473;-77
2022/05/17 12:18:39;;;;;;;1.40;0.87;;;26.10;72.20;;;;;;5018555;28;20470;-76
2022/05/17 12:21:26;;;;;;;1.50;0.80;;;26.00;71.40;;;;;;4992393;28;20482;-75
2022/05/17 12:23:59;;;;;;;1.40;0.80;;;26.20;71.50;;;;;;5017951;28;20462;-76
2022/05/17 12:26:52;;;;;;;1.47;0.80;;;26.70;71.20;;;;;;5023250;28;20622;-76
2022/05/17 12:32:10;;;;;;;1.43;0.80;;;27.00;69.40;;;;;;5013370;28;20462;-76
2022/05/17 12:34:37;;;;;;;1.47;0.80;;;27.20;69.50;;;;;;5017682;28;20540;-76
2022/05/17 12:37:10;;;;;;;1.47;0.80;;;27.20;67.70;;;;;;5018358;28;20462;-75
2022/05/17 12:45:14;;;;;;;1.40;0.80;;;27.30;68.30;;;;;;5013283;28;20733;-76
2022/05/17 12:47:48;;;;;;;1.43;0.80;;;27.20;68.20;;;;;;5023970;28;20474;-76
2022/05/17 12:50:17;;;;;;;1.43;0.80;;;27.00;68.10;;;;;;5020917;28;21013;-76
2022/05/17 12:52:46;;;;;;;1.40;0.80;;;26.90;69.40;;;;;;5016584;28;20478;-76
2022/05/17 12:55:18;;;;;;;1.40;0.90;;;27.00;68.60;;;;;;5021395;28;20467;-76
2022/05/17 12:57:47;;;;;;;1.40;0.80;;;27.00;68.70;;;;;;5020233;28;20463;-76
2022/05/17 13:00:17;;;;;;;1.43;0.83;;;27.10;69.10;;;;;;5020483;28;21040;-76
2022/05/17 13:02:45;;;;;;;1.40;0.80;;;27.30;67.30;;;;;;5019841;28;20461;-76
2022/05/17 13:05:26;;;;;;;1.43;0.80;;;27.50;68.40;;;;;;5014351;28;20491;-76
2022/05/17 13:08:06;;;;;;;1.43;0.80;;;27.80;68.60;;;;;;5017192;28;20502;-76
2022/05/17 13:10:33;;;;;;;1.43;0.80;;;28.10;67.30;;;;;;5019513;28;20672;-76
2022/05/17 13:13:13;;;;;;;1.43;0.80;;;28.30;65.90;;;;;;5008210;28;20894;-76
2022/05/17 13:15:41;;;;;;;1.47;0.87;;;28.20;66.50;;;;;;5023032;28;20462;-76
2022/05/17 13:18:10;;;;;;;1.47;0.80;;;28.20;66.80;;;;;;5023186;28;20462;-76
2022/05/17 13:20:39;;;;;;;1.47;0.87;;;28.10;66.30;;;;;;5022135;28;20495;-76
2022/05/17 13:23:24;;;;;;;1.43;0.80;;;28.00;66.40;;;;;;5021276;28;21030;-75
2022/05/17 13:25:51;;;;;;;1.40;0.80;;;28.00;66.70;;;;;;5018273;28;20613;-76
2022/05/17 13:28:27;;;;;;;1.43;0.80;;;27.90;66.50;;;;;;5022976;28;20474;-76
2022/05/17 13:31:04;;;;;;;1.47;0.90;;;27.90;67.30;;;;;;5021297;28;20485;-76
2022/05/17 13:33:33;;;;;;;1.47;0.80;;;28.00;66.50;;;;;;5016960;28;20646;-76
2022/05/17 13:36:06;;;;;;;1.40;0.80;;;28.30;67.10;;;;;;5016597;28;20461;-76